Schubert, Missouri
Current Conditions -  °F | °C
As of 5:53 PM on Wednesday 26 Nov 2014 (Local Time) from KJEF Reporting Station
Overcast Overcast  
Wind Chill: 28°   Ceiling: 2100
Heat Index: 38°   Visibility: 10mi
Dew Point: 33°   Wind: 18mph
Humidity: 83%   Direction: 290°WNW
Pressure: 30.07"   Gusts: 26mph
Location:  38.5003°N, 92.1516°W
Report Text: KJEF 262353Z 29016G23KT 10SM OVC021 03/01 A3007 RMK AO2 RAE22 SLP178 P0001 60004 T00330006 10056 20033 53029 $
Loading
Personal Weather Stations






























Interactive Weather Map New forecast layout! Learn more

10-Day Weather Forecast

Advertisements
Track Severe Weather on mobile